Time;durP1;ratioP1;P1;durP2;ratioP2;P2;SDS_P1;SDS_P2;PMS_P1;PMS_P2;Temp;Humidity;BMP_temperature;BMP_pressure;BME280_temperature;BME280_humidity;BME280_pressure;Samples;Min_cycle;Max_cycle;Signal;HPM_P1;HPM_P2
2021/06/22 00:00:46;;;;;;;1999.90;999.90;;;;;;;20.49;100.00;95413.38;5069303;28;20192;-75
2021/06/22 00:03:13;;;;;;;1999.90;999.90;;;;;;;20.56;100.00;95423.28;5071225;28;20201;-76
2021/06/22 00:05:40;;;;;;;1999.90;999.90;;;;;;;20.49;100.00;95445.06;5089051;28;20196;-76
2021/06/22 00:08:07;;;;;;;1999.90;999.90;;;;;;;20.41;100.00;95440.81;5088483;28;20203;-76
2021/06/22 00:10:34;;;;;;;1999.90;999.90;;;;;;;20.48;100.00;95426.94;5088994;28;20247;-76
2021/06/22 00:13:03;;;;;;;1999.90;999.90;;;;;;;20.37;100.00;95415.50;5088589;28;20629;-75
2021/06/22 00:15:32;;;;;;;1999.90;999.90;;;;;;;20.33;100.00;95425.97;5088967;28;20682;-76
2021/06/22 00:18:00;;;;;;;1999.90;999.90;;;;;;;20.39;100.00;95427.19;5088887;28;20196;-77
2021/06/22 00:20:27;;;;;;;1999.90;999.90;;;;;;;20.33;100.00;95412.03;5090931;28;20203;-76
2021/06/22 00:22:55;;;;;;;1999.90;999.90;;;;;;;20.31;100.00;95404.47;5092712;28;20198;-76
2021/06/22 00:25:23;;;;;;;1999.90;999.90;;;;;;;20.36;100.00;95396.25;5092777;28;20199;-75
2021/06/22 00:27:50;;;;;;;1999.90;999.90;;;;;;;20.40;100.00;95398.94;5092556;28;20204;-75
2021/06/22 00:30:21;;;;;;;1999.90;999.90;;;;;;;20.39;100.00;95407.97;5092213;28;20191;-76
2021/06/22 00:32:48;;;;;;;1999.90;999.90;;;;;;;20.47;100.00;95409.59;5092747;28;20184;-76
2021/06/22 00:35:17;;;;;;;1999.90;999.90;;;;;;;20.48;100.00;95401.28;5092708;28;20252;-74
2021/06/22 00:37:44;;;;;;;1999.90;999.90;;;;;;;20.38;100.00;95409.06;5092818;28;20276;-75
2021/06/22 00:40:13;;;;;;;1999.90;999.90;;;;;;;20.35;100.00;95409.78;5092928;28;20630;-75
2021/06/22 00:42:42;;;;;;;1999.90;999.90;;;;;;;20.37;100.00;95410.97;5092395;28;20296;-74
2021/06/22 00:45:10;;;;;;;1999.90;999.90;;;;;;;20.43;100.00;95408.75;5092294;28;20199;-75
2021/06/22 00:47:39;;;;;;;1999.90;999.90;;;;;;;20.45;100.00;95427.66;5092556;28;20203;-75
2021/06/22 00:50:07;;;;;;;1999.90;999.90;;;;;;;20.45;100.00;95433.69;5092466;28;20203;-75
2021/06/22 00:52:37;;;;;;;1999.90;999.90;;;;;;;20.49;100.00;95429.22;5092193;28;20228;-76
2021/06/22 00:55:11;;;;;;;1999.90;999.90;;;;;;;20.48;100.00;95411.84;5091940;28;20695;-76
2021/06/22 00:57:38;;;;;;;1999.90;999.90;;;;;;;20.48;100.00;95405.81;5091938;28;20207;-71
2021/06/22 01:00:07;;;;;;;1999.90;999.90;;;;;;;20.47;100.00;95388.47;5091741;28;20290;-75
2021/06/22 01:02:34;;;;;;;1999.90;999.90;;;;;;;20.41;100.00;95376.69;5092414;28;20204;-74
2021/06/22 01:05:03;;;;;;;1999.90;999.90;;;;;;;20.11;100.00;95387.22;5074001;28;20204;-74
2021/06/22 01:07:31;;;;;;;1999.90;999.90;;;;;;;20.01;100.00;95387.81;5071544;28;20591;-75
2021/06/22 01:09:58;;;;;;;1999.90;999.90;;;;;;;20.09;100.00;95389.44;5071539;28;20197;-73
2021/06/22 01:12:25;;;;;;;1999.90;999.90;;;;;;;20.08;100.00;95398.47;5071408;28;20242;-74
2021/06/22 01:14:52;;;;;;;1999.90;999.90;;;;;;;20.07;100.00;95400.38;5071687;28;20289;-73
2021/06/22 01:17:19;;;;;;;1999.90;999.90;;;;;;;20.10;100.00;95401.50;5071680;28;20201;-74
2021/06/22 01:19:47;;;;;;;1999.90;999.90;;;;;;;20.13;100.00;95414.75;5071606;28;20274;-76
2021/06/22 01:22:15;;;;;;;1999.90;999.90;;;;;;;20.24;100.00;95401.72;5070953;28;20275;-76
2021/06/22 01:24:42;;;;;;;1999.90;999.90;;;;;;;20.16;100.00;95397.47;5071109;28;20197;-76
2021/06/22 01:27:10;;;;;;;1999.90;999.90;;;;;;;20.15;100.00;95401.22;5071131;28;20197;-76
2021/06/22 01:29:37;;;;;;;1999.90;999.90;;;;;;;20.21;100.00;95391.88;5071236;28;20193;-76
2021/06/22 01:32:07;;;;;;;1999.90;999.90;;;;;;;20.22;100.00;95387.34;5070432;28;20779;-73
2021/06/22 01:34:35;;;;;;;1999.90;999.90;;;;;;;20.31;100.00;95388.66;5068566;28;20192;-75
2021/06/22 01:37:02;;;;;;;1999.90;999.90;;;;;;;20.28;100.00;95381.41;5068831;28;20667;-76
2021/06/22 01:39:30;;;;;;;1999.90;999.90;;;;;;;20.10;100.00;95381.16;5070900;28;20596;-74
2021/06/22 01:41:57;;;;;;;1999.90;999.90;;;;;;;20.15;100.00;95386.13;5070838;28;20605;-76
2021/06/22 01:44:28;;;;;;;1999.90;999.90;;;;;;;20.11;100.00;95392.50;5070667;28;20200;-75
2021/06/22 01:46:55;;;;;;;1999.90;999.90;;;;;;;20.08;100.00;95396.59;5070697;28;20749;-75
2021/06/22 01:49:22;;;;;;;1999.90;999.90;;;;;;;20.08;100.00;95390.53;5070535;28;20197;-74
2021/06/22 01:51:50;;;;;;;1999.90;999.90;;;;;;;20.07;100.00;95405.63;5070874;28;20293;-75
2021/06/22 01:54:17;;;;;;;1999.90;999.90;;;;;;;20.11;100.00;95403.03;5070530;28;20772;-77
2021/06/22 01:56:50;;;;;;;1999.90;999.90;;;;;;;19.99;100.00;95384.75;5070570;28;20586;-76
2021/06/22 01:59:17;;;;;;;1999.90;999.90;;;;;;;19.94;100.00;95387.72;5070528;28;20208;-77
2021/06/22 02:01:44;;;;;;;1999.90;999.90;;;;;;;19.99;100.00;95397.97;5062385;28;20290;-76
2021/06/22 02:04:12;;;;;;;1999.90;999.90;;;;;;;19.98;100.00;95396.44;5078631;28;20200;-76
2021/06/22 02:06:40;;;;;;;1999.90;999.90;;;;;;;20.03;100.00;95398.75;5069452;28;20207;-74
2021/06/22 02:09:07;;;;;;;1999.90;999.90;;;;;;;19.92;100.00;95406.53;5069777;28;20211;-74
2021/06/22 02:11:34;;;;;;;1999.90;999.90;;;;;;;19.92;100.00;95398.63;5069413;28;20223;-75
2021/06/22 02:14:04;;;;;;;1999.90;999.90;;;;;;;19.94;100.00;95395.63;5070297;28;20201;-76
2021/06/22 02:16:32;;;;;;;1999.90;999.90;;;;;;;19.92;100.00;95403.16;5069930;28;20280;-76
2021/06/22 02:19:00;;;;;;;1999.90;999.90;;;;;;;19.93;100.00;95399.38;5070079;28;20203;-77
2021/06/22 02:21:27;;;;;;;1999.90;999.90;;;;;;;19.88;100.00;95391.75;5069639;28;20254;-75
2021/06/22 02:23:54;;;;;;;1999.90;999.90;;;;;;;19.67;100.00;95392.22;5069857;28;20575;-79
2021/06/22 02:26:21;;;;;;;1999.90;999.90;;;;;;;19.69;100.00;95390.75;5069538;28;20204;-76
2021/06/22 02:28:48;;;;;;;1999.90;999.90;;;;;;;19.70;100.00;95384.34;5078249;28;20209;-74
2021/06/22 02:31:16;;;;;;;1999.90;999.90;;;;;;;19.64;100.00;95385.75;5069765;28;20221;-76
2021/06/22 02:33:44;;;;;;;1999.90;999.90;;;;;;;19.59;100.00;95393.97;5070091;28;20201;-74
2021/06/22 02:36:11;;;;;;;1999.90;999.90;;;;;;;19.60;100.00;95400.78;5069802;28;20668;-74
2021/06/22 02:38:38;;;;;;;1999.90;999.90;;;;;;;19.61;100.00;95404.16;5070067;28;20200;-78
2021/06/22 02:41:05;;;;;;;1999.90;999.90;;;;;;;19.56;100.00;95394.69;5069593;28;20201;-74
2021/06/22 02:43:32;;;;;;;1999.90;999.90;;;;;;;19.51;100.00;95397.63;5068311;28;20228;-73
2021/06/22 02:45:59;;;;;;;1999.90;999.90;;;;;;;19.54;100.00;95401.41;5055498;28;20197;-73
2021/06/22 02:48:28;;;;;;;1999.90;999.90;;;;;;;19.47;100.00;95407.34;5065098;28;20703;-73
2021/06/22 02:50:55;;;;;;;1999.90;999.90;;;;;;;19.44;100.00;95412.50;5069265;28;20249;-75
2021/06/22 02:53:22;;;;;;;1999.90;999.90;;;;;;;19.45;100.00;95417.47;5069720;28;20699;-72
2021/06/22 02:55:49;;;;;;;1999.90;999.90;;;;;;;19.43;100.00;95419.66;5055623;28;20217;-75
2021/06/22 02:58:16;;;;;;;1999.90;999.90;;;;;;;19.47;100.00;95407.34;5088707;28;20769;-76
2021/06/22 03:00:43;;;;;;;1999.90;999.90;;;;;;;19.44;100.00;95410.66;5089513;28;20196;-75
2021/06/22 03:03:11;;;;;;;1999.90;999.90;;;;;;;19.28;100.00;95412.63;5087289;28;20199;-69
2021/06/22 03:05:39;;;;;;;1999.90;999.90;;;;;;;19.19;100.00;95419.97;5069567;28;20904;-68
2021/06/22 03:08:07;;;;;;;1999.90;999.90;;;;;;;19.25;100.00;95415.97;5069169;28;20246;-67
2021/06/22 03:10:34;;;;;;;1999.90;999.90;;;;;;;19.36;100.00;95414.28;5069410;28;20196;-68
2021/06/22 03:13:01;;;;;;;1999.90;999.90;;;;;;;19.35;100.00;95410.13;5069692;28;20266;-67
2021/06/22 03:15:28;;;;;;;1999.90;999.90;;;;;;;19.31;100.00;95404.78;5085549;28;20268;-68
2021/06/22 03:17:56;;;;;;;1999.90;999.90;;;;;;;19.37;100.00;95409.78;5089759;28;20203;-67
2021/06/22 03:20:23;;;;;;;1999.90;999.90;;;;;;;19.39;100.00;95416.19;5089575;28;20249;-68
2021/06/22 03:22:51;;;;;;;1999.90;999.90;;;;;;;19.45;100.00;95403.53;5083513;28;20253;-68
2021/06/22 03:25:19;;;;;;;1999.90;999.90;;;;;;;19.44;100.00;95408.03;5074817;28;20257;-69
2021/06/22 03:27:47;;;;;;;1999.90;999.90;;;;;;;19.48;100.00;95408.84;5072338;28;20208;-69
2021/06/22 03:30:15;;;;;;;1999.90;999.90;;;;;;;19.49;100.00;95414.88;5061770;28;20205;-69
2021/06/22 03:32:45;;;;;;;1999.90;999.90;;;;;;;19.45;100.00;95425.38;5054863;28;20231;-68
2021/06/22 03:35:14;;;;;;;1999.90;999.90;;;;;;;19.55;100.00;95424.78;5053561;28;20207;-68
2021/06/22 03:37:41;;;;;;;1999.90;999.90;;;;;;;19.60;100.00;95416.59;5055159;28;20197;-72
2021/06/22 03:40:10;;;;;;;1999.90;999.90;;;;;;;19.73;100.00;95425.06;5067312;28;20597;-67
2021/06/22 03:42:38;;;;;;;1999.90;999.90;;;;;;;19.86;100.00;95429.06;5068829;28;20286;-66
2021/06/22 03:45:07;;;;;;;1999.90;999.90;;;;;;;19.88;100.00;95431.31;5068253;28;20201;-66
2021/06/22 03:47:34;;;;;;;1999.90;999.90;;;;;;;19.91;100.00;95428.00;5066965;28;20768;-66
2021/06/22 03:50:02;;;;;;;1999.90;999.90;;;;;;;19.98;100.00;95428.84;5068044;28;20204;-69
2021/06/22 03:52:29;;;;;;;1999.90;999.90;;;;;;;20.04;100.00;95426.69;5065870;28;20228;-68
2021/06/22 03:54:56;;;;;;;1999.90;999.90;;;;;;;20.07;100.00;95418.84;5066704;28;20254;-68
2021/06/22 03:57:24;;;;;;;1999.90;999.90;;;;;;;20.13;100.00;95420.03;5067234;28;20915;-68
2021/06/22 03:59:52;;;;;;;1999.90;999.90;;;;;;;20.19;100.00;95425.75;5067236;28;20200;-68
2021/06/22 04:02:19;;;;;;;1999.90;999.90;;;;;;;20.28;100.00;95423.63;5066913;28;20736;-68
2021/06/22 04:04:46;;;;;;;1999.90;999.90;;;;;;;20.37;100.00;95433.97;5082759;28;20200;-68
2021/06/22 04:07:13;;;;;;;1999.90;999.90;;;;;;;20.35;100.00;95430.91;5087276;28;20258;-68
2021/06/22 04:09:40;;;;;;;1999.90;999.90;;;;;;;20.48;100.00;95430.34;5089009;28;20203;-67
2021/06/22 04:12:09;;;;;;;1999.90;999.90;;;;;;;20.51;100.00;95431.50;5088595;28;20232;-68
2021/06/22 04:14:37;;;;;;;1999.90;999.90;;;;;;;20.60;100.00;95429.38;5088600;28;20196;-66
2021/06/22 04:17:04;;;;;;;1999.90;999.90;;;;;;;20.70;100.00;95434.00;5088962;28;20200;-67
2021/06/22 04:19:32;;;;;;;1999.90;999.90;;;;;;;20.58;100.00;95424.44;5088736;28;20196;-67
2021/06/22 04:21:59;;;;;;;1999.90;999.90;;;;;;;20.54;100.00;95428.91;5088505;28;20210;-68
2021/06/22 04:24:26;;;;;;;1999.90;999.90;;;;;;;20.70;100.00;95430.63;5084623;28;20265;-68
2021/06/22 04:26:53;;;;;;;1999.90;999.90;;;;;;;20.78;100.00;95435.63;5068704;28;20261;-67
2021/06/22 04:29:20;;;;;;;1999.90;999.90;;;;;;;20.78;100.00;95434.84;5068146;28;20200;-68
2021/06/22 04:31:48;;;;;;;1999.90;999.90;;;;;;;21.07;100.00;95441.97;5068314;28;20270;-68
2021/06/22 04:34:15;;;;;;;1999.90;999.90;;;;;;;21.37;100.00;95442.69;5068689;28;20235;-68
2021/06/22 04:36:42;;;;;;;1999.90;999.90;;;;;;;21.75;100.00;95446.84;5068630;28;20208;-69
2021/06/22 04:39:09;;;;;;;1999.90;999.90;;;;;;;22.14;100.00;95454.34;5068352;28;20205;-68
2021/06/22 04:41:37;;;;;;;1999.90;999.90;;;;;;;22.60;98.46;95460.69;5068484;28;20235;-68
2021/06/22 04:44:04;;;;;;;1999.90;999.90;;;;;;;22.55;98.63;95463.69;5068701;28;20571;-68
2021/06/22 04:46:31;;;;;;;1999.90;999.90;;;;;;;22.92;95.11;95468.03;5068025;28;20214;-67
2021/06/22 04:49:00;;;;;;;1999.90;999.90;;;;;;;22.91;96.14;95464.66;5068373;28;20196;-68
2021/06/22 04:51:27;;;;;;;1999.90;999.90;;;;;;;22.85;96.99;95470.66;5068169;28;20197;-68
2021/06/22 04:53:54;;;;;;;1999.90;999.90;;;;;;;23.09;96.89;95470.00;5068050;28;20231;-67
2021/06/22 04:56:22;;;;;;;1999.90;999.90;;;;;;;23.25;96.17;95472.31;5068241;28;20196;-67
2021/06/22 04:58:50;;;;;;;1999.90;999.90;;;;;;;23.12;95.20;95480.63;5067958;28;20204;-67
2021/06/22 05:01:17;;;;;;;1999.90;999.90;;;;;;;23.20;94.49;95488.59;5068189;28;20270;-67
2021/06/22 05:03:44;;;;;;;1999.90;999.90;;;;;;;23.52;93.60;95486.81;5074935;28;20682;-67
2021/06/22 05:06:13;;;;;;;1999.90;999.90;;;;;;;23.45;93.73;95489.47;5088747;28;20215;-67
2021/06/22 05:08:41;;;;;;;1999.90;999.90;;;;;;;23.52;93.20;95487.56;5092221;28;20219;-68
2021/06/22 05:11:08;;;;;;;1999.90;999.90;;;;;;;23.81;92.13;95491.03;5091492;28;20207;-67
2021/06/22 05:13:35;;;;;;;1999.90;999.90;;;;;;;23.94;90.12;95497.50;5091677;28;20219;-67
2021/06/22 05:16:03;;;;;;;1999.90;999.90;;;;;;;23.69;90.85;95488.00;5091624;28;20200;-67
2021/06/22 05:18:30;;;;;;;1999.90;999.90;;;;;;;23.93;89.72;95495.22;5091536;28;20207;-67
2021/06/22 05:20:57;;;;;;;1999.90;999.90;;;;;;;23.81;89.58;95498.25;5091389;28;20244;-68
2021/06/22 05:23:26;;;;;;;1999.90;999.90;;;;;;;23.92;88.96;95506.97;5080674;28;20193;-68
2021/06/22 05:25:53;;;;;;;1999.90;999.90;;;;;;;24.07;87.91;95505.84;5070247;28;20208;-68
2021/06/22 05:28:20;;;;;;;1999.90;999.90;;;;;;;23.73;89.34;95507.31;5071458;28;20216;-67
2021/06/22 05:30:47;;;;;;;1999.90;999.90;;;;;;;23.95;88.46;95504.34;5071494;28;20273;-68
2021/06/22 05:33:14;;;;;;;1999.90;999.90;;;;;;;23.88;87.74;95508.84;5071514;28;20220;-68
2021/06/22 05:35:41;;;;;;;1999.90;999.90;;;;;;;23.82;85.47;95505.81;5071111;28;20735;-68
2021/06/22 05:38:08;;;;;;;1999.90;999.90;;;;;;;23.74;86.90;95503.53;5071298;28;20208;-68
2021/06/22 05:40:37;;;;;;;1999.90;999.90;;;;;;;23.99;87.09;95499.78;5071086;28;20203;-68
2021/06/22 05:43:04;;;;;;;1999.90;999.90;;;;;;;24.17;85.28;95497.13;5070920;28;20243;-67
2021/06/22 05:45:31;;;;;;;1999.90;999.90;;;;;;;24.15;86.18;95494.09;5070834;28;20196;-67
2021/06/22 05:47:59;;;;;;;1999.90;999.90;;;;;;;24.25;86.90;95489.94;5071164;28;20201;-67
2021/06/22 05:50:26;;;;;;;1999.90;999.90;;;;;;;24.44;85.70;95492.19;5070717;28;20258;-67
2021/06/22 05:52:54;;;;;;;1999.90;999.90;;;;;;;24.25;83.38;95488.03;5070599;28;20724;-68
2021/06/22 05:55:22;;;;;;;1999.90;999.90;;;;;;;24.41;82.26;95491.03;5071019;28;20203;-68
2021/06/22 05:57:51;;;;;;;1999.90;999.90;;;;;;;24.76;82.27;95492.09;5070720;28;20283;-68
2021/06/22 06:00:20;;;;;;;1999.90;999.90;;;;;;;24.93;79.46;95493.22;5070577;28;20205;-68
2021/06/22 06:02:49;;;;;;;1999.90;999.90;;;;;;;25.10;80.46;95495.09;5070561;28;20287;-67
2021/06/22 06:05:16;;;;;;;1999.90;999.90;;;;;;;25.39;79.40;95495.69;5090641;28;20207;-68
2021/06/22 06:07:44;;;;;;;1999.90;999.90;;;;;;;25.61;78.04;95497.88;5090678;28;20212;-68
2021/06/22 06:10:12;;;;;;;1999.90;999.90;;;;;;;25.73;74.91;95494.00;5090881;28;20207;-68
2021/06/22 06:12:39;;;;;;;1999.90;999.90;;;;;;;25.56;76.16;95495.63;5090413;28;20223;-68
2021/06/22 06:15:09;;;;;;;1999.90;999.90;;;;;;;25.44;76.19;95493.41;5090564;28;20192;-67
2021/06/22 06:17:37;;;;;;;1999.90;999.90;;;;;;;25.48;76.74;95493.38;5091172;28;20226;-67
2021/06/22 06:20:07;;;;;;;1999.90;999.90;;;;;;;25.62;75.84;95494.06;5090936;28;20195;-67
2021/06/22 06:22:34;;;;;;;1999.90;999.90;;;;;;;25.61;74.87;95487.22;5090428;28;20291;-68
2021/06/22 06:25:03;;;;;;;1999.90;999.90;;;;;;;25.52;76.20;95486.88;5090742;28;20199;-67
2021/06/22 06:27:41;;;;;;;1999.90;999.90;;;;;;;25.64;75.00;95483.03;5090644;28;20257;-67
2021/06/22 06:30:13;;;;;;;1999.90;999.90;;;;;;;25.60;75.19;95491.03;5076849;28;20707;-67
2021/06/22 06:32:40;;;;;;;1999.90;999.90;;;;;;;25.71;77.82;95483.75;5070280;28;20235;-67
2021/06/22 06:35:08;;;;;;;1999.90;999.90;;;;;;;25.96;73.73;95493.44;5069605;28;20208;-67
2021/06/22 06:37:35;;;;;;;1999.90;999.90;;;;;;;26.23;72.87;95499.75;5070007;28;20668;-68
2021/06/22 06:40:02;;;;;;;1999.90;999.90;;;;;;;26.20;73.79;95497.09;5069880;28;20285;-67
2021/06/22 06:42:29;;;;;;;1999.90;999.90;;;;;;;26.35;75.52;95490.53;5069315;28;20228;-68
2021/06/22 06:44:56;;;;;;;1999.90;999.90;;;;;;;26.30;74.49;95497.00;5069612;28;20196;-68
2021/06/22 06:47:25;;;;;;;1999.90;999.90;;;;;;;26.43;71.07;95503.38;5069724;28;20200;-67
2021/06/22 06:49:52;;;;;;;1999.90;999.90;;;;;;;26.40;71.77;95500.75;5069759;28;20203;-67
2021/06/22 06:52:20;;;;;;;1999.90;999.90;;;;;;;26.56;71.39;95500.97;5069812;28;20745;-68
2021/06/22 06:54:47;;;;;;;1999.90;999.90;;;;;;;26.70;73.39;95500.81;5069585;28;20630;-67
2021/06/22 06:57:14;;;;;;;1999.90;999.90;;;;;;;26.78;72.68;95501.50;5070046;28;20198;-67
2021/06/22 06:59:41;;;;;;;1999.90;999.90;;;;;;;26.98;71.91;95516.56;5069719;28;20715;-67
2021/06/22 07:02:08;;;;;;;1999.90;999.90;;;;;;;27.13;68.89;95509.16;5069836;28;20208;-67
2021/06/22 07:04:37;;;;;;;1999.90;999.90;;;;;;;27.03;67.85;95507.38;5083755;28;20198;-68
2021/06/22 07:07:04;;;;;;;1999.90;999.90;;;;;;;27.08;69.86;95509.59;5089671;28;20199;-67
2021/06/22 07:09:31;;;;;;;1999.90;999.90;;;;;;;27.37;70.24;95510.75;5089986;28;20619;-67
2021/06/22 07:11:58;;;;;;;1999.90;999.90;;;;;;;27.44;68.32;95514.50;5089861;28;20211;-68
2021/06/22 07:14:26;;;;;;;1999.90;999.90;;;;;;;27.45;67.96;95518.69;5087371;28;20223;-67
2021/06/22 07:16:53;;;;;;;1999.90;999.90;;;;;;;27.62;71.25;95513.13;5069614;28;20208;-67
2021/06/22 07:19:20;;;;;;;1999.90;999.90;;;;;;;27.79;70.61;95509.47;5069540;28;20196;-68
2021/06/22 07:21:49;;;;;;;1999.90;999.90;;;;;;;27.63;68.73;95511.97;5069549;28;20655;-68
2021/06/22 07:24:16;;;;;;;1999.90;999.90;;;;;;;27.92;67.62;95516.91;5069276;28;20189;-68
2021/06/22 07:26:43;;;;;;;1999.90;999.90;;;;;;;28.02;67.78;95516.75;5069458;28;20538;-67
2021/06/22 07:29:10;;;;;;;1999.90;999.90;;;;;;;28.29;65.78;95514.06;5068766;28;20789;-67
2021/06/22 07:31:37;;;;;;;1999.90;999.90;;;;;;;28.27;64.60;95511.03;5069194;28;20591;-67
2021/06/22 07:34:04;;;;;;;1999.90;999.90;;;;;;;27.86;66.12;95518.50;5069284;28;20228;-67
2021/06/22 07:36:31;;;;;;;1999.90;999.90;;;;;;;28.10;64.96;95514.69;5069296;28;20262;-68
2021/06/22 07:39:00;;;;;;;1999.90;999.90;;;;;;;28.22;64.04;95516.84;5069287;28;20699;-68
2021/06/22 07:41:27;;;;;;;1999.90;999.90;;;;;;;28.33;67.48;95514.00;5067760;28;20661;-68
2021/06/22 07:43:55;;;;;;;1999.90;999.90;;;;;;;28.56;65.00;95511.31;5068867;28;20199;-68
2021/06/22 07:46:22;;;;;;;1999.90;999.90;;;;;;;28.69;66.71;95504.22;5068805;28;20211;-68
2021/06/22 07:48:49;;;;;;;1999.90;999.90;;;;;;;28.23;69.28;95502.31;5069090;28;20259;-68
2021/06/22 07:51:16;;;;;;;1999.90;999.90;;;;;;;28.31;68.43;95502.94;5069071;28;20212;-67
2021/06/22 07:53:43;;;;;;;1999.90;999.90;;;;;;;28.45;69.97;95500.78;5069035;28;20224;-67
2021/06/22 07:56:12;;;;;;;1999.90;999.90;;;;;;;28.52;69.53;95500.69;5068990;28;20223;-67
2021/06/22 07:58:39;;;;;;;1999.90;999.90;;;;;;;28.44;67.39;95498.53;5069214;28;20565;-68
2021/06/22 08:01:06;;;;;;;1999.90;999.90;;;;;;;28.68;67.19;95495.44;5068671;28;20196;-68
2021/06/22 08:03:33;;;;;;;1999.90;999.90;;;;;;;28.86;65.65;95495.13;5074250;28;20192;-68
2021/06/22 08:06:00;;;;;;;1999.90;999.90;;;;;;;29.00;67.79;95496.75;5088724;28;20253;-67
2021/06/22 08:08:27;;;;;;;1999.90;999.90;;;;;;;29.03;66.68;95496.69;5089304;28;20245;-67
2021/06/22 08:10:56;;;;;;;1999.90;999.90;;;;;;;29.18;67.89;95489.16;5089320;28;20195;-67
2021/06/22 08:13:25;;;;;;;1999.90;999.90;;;;;;;29.32;64.68;95491.56;5089114;28;20227;-67
2021/06/22 08:15:53;;;;;;;1999.90;999.90;;;;;;;29.37;65.25;95491.06;5089265;28;20199;-68
2021/06/22 08:18:20;;;;;;;1999.90;999.90;;;;;;;28.98;67.96;95494.50;5088699;28;20257;-68
2021/06/22 08:20:49;;;;;;;1999.90;999.90;;;;;;;29.10;70.30;95488.53;5088750;28;20690;-68
2021/06/22 08:23:17;;;;;;;1999.90;999.90;;;;;;;29.49;65.23;95486.97;5089055;28;20716;-68
2021/06/22 08:25:45;;;;;;;1999.90;999.90;;;;;;;29.35;67.45;95481.91;5088995;28;20253;-68
2021/06/22 08:28:12;;;;;;;1999.90;999.90;;;;;;;29.37;68.31;95479.59;5088593;28;20200;-66
2021/06/22 08:30:41;;;;;;;1999.90;999.90;;;;;;;29.35;68.58;95479.25;5088846;28;20203;-67
2021/06/22 08:33:08;;;;;;;1999.90;999.90;;;;;;;29.70;66.07;95481.16;5089001;28;20219;-68
2021/06/22 08:35:36;;;;;;;1999.90;999.90;;;;;;;29.74;66.99;95481.81;5088583;28;20200;-68
2021/06/22 08:38:05;;;;;;;1999.90;999.90;;;;;;;29.92;65.25;95484.13;5088559;28;20199;-67
2021/06/22 08:40:33;;;;;;;1999.90;999.90;;;;;;;30.00;65.65;95480.09;5088530;28;20758;-67
2021/06/22 08:43:00;;;;;;;1999.90;999.90;;;;;;;30.08;63.86;95492.19;5091340;28;20796;-68
2021/06/22 08:45:28;;;;;;;1999.90;999.90;;;;;;;29.71;61.72;95488.03;5092705;28;20196;-67
2021/06/22 08:47:56;;;;;;;1999.90;999.90;;;;;;;29.77;61.17;95483.69;5092584;28;20254;-68
2021/06/22 08:50:24;;;;;;;1999.90;999.90;;;;;;;30.02;62.71;95485.06;5092407;28;20199;-68
2021/06/22 08:52:51;;;;;;;1999.90;999.90;;;;;;;29.97;61.17;95480.97;5092530;28;20195;-67
2021/06/22 08:55:29;;;;;;;1999.90;999.90;;;;;;;29.81;63.90;95479.00;5092254;28;20202;-68
2021/06/22 08:57:58;;;;;;;1999.90;999.90;;;;;;;29.89;64.69;95476.91;5092564;28;20191;-68
2021/06/22 09:00:26;;;;;;;1999.90;999.90;;;;;;;30.10;63.90;95483.72;5092076;28;20200;-67
2021/06/22 09:03:11;;;;;;;1999.90;999.90;;;;;;;30.36;64.69;95477.31;5092146;28;20200;-68
2021/06/22 09:05:39;;;;;;;1999.90;999.90;;;;;;;30.35;61.80;95481.91;5051915;28;20672;-67
2021/06/22 09:08:16;;;;;;;1999.90;999.90;;;;;;;30.68;59.96;95476.53;5051819;28;20623;-68
2021/06/22 09:10:43;;;;;;;1999.90;999.90;;;;;;;30.61;60.36;95472.09;5051879;28;20662;-68
2021/06/22 09:13:16;;;;;;;1999.90;999.90;;;;;;;30.48;60.15;95473.97;5056196;28;20200;-68
2021/06/22 09:15:45;;;;;;;1999.90;999.90;;;;;;;30.60;61.93;95477.88;5071950;28;20193;-68
2021/06/22 09:18:29;;;;;;;1999.90;999.90;;;;;;;30.93;59.52;95470.50;5071494;28;20207;-68
2021/06/22 09:20:58;;;;;;;1999.90;999.90;;;;;;;31.15;60.22;95471.41;5071516;28;20185;-68
2021/06/22 09:23:26;;;;;;;1999.90;999.90;;;;;;;31.20;59.62;95470.88;5071795;28;20258;-68
2021/06/22 09:25:56;;;;;;;1999.90;999.90;;;;;;;31.37;55.43;95472.31;5071280;28;20215;-68
2021/06/22 09:28:25;;;;;;;1999.90;999.90;;;;;;;31.25;56.67;95477.66;5071651;28;20208;-68
2021/06/22 09:30:55;;;;;;;1999.90;999.90;;;;;;;31.28;57.69;95472.19;5071292;28;20200;-67
2021/06/22 09:33:26;;;;;;;1999.90;999.90;;;;;;;31.27;58.80;95481.44;5071352;28;20200;-68
2021/06/22 09:36:12;;;;;;;1999.90;999.90;;;;;;;31.37;57.91;95469.63;5071584;28;20201;-67
2021/06/22 09:38:42;;;;;;;1999.90;999.90;;;;;;;31.47;57.86;95481.25;5071225;28;20605;-66
2021/06/22 09:41:12;;;;;;;1999.90;999.90;;;;;;;31.65;55.26;95480.72;5071167;28;20638;-68
2021/06/22 09:43:41;;;;;;;1999.90;999.90;;;;;;;31.77;55.96;95479.97;5071288;28;20185;-67
2021/06/22 09:46:09;;;;;;;1999.90;999.90;;;;;;;31.78;54.06;95476.13;5071253;28;20262;-68
2021/06/22 09:48:56;;;;;;;1999.90;999.90;;;;;;;31.95;55.29;95474.78;5071023;28;20201;-68
2021/06/22 09:51:30;;;;;;;1999.90;999.90;;;;;;;31.92;54.12;95479.13;5070939;28;20277;-68
2021/06/22 09:54:09;;;;;;;1999.90;999.90;;;;;;;31.75;54.28;95475.03;5070744;28;20294;-67
2021/06/22 09:56:36;;;;;;;1999.90;999.90;;;;;;;31.71;53.70;95473.63;5071135;28;20238;-67
2021/06/22 09:59:08;;;;;;;1999.90;999.90;;;;;;;31.54;55.66;95472.94;5070791;28;20660;-68
2021/06/22 10:01:37;;;;;;;1999.90;999.90;;;;;;;31.60;56.84;95473.97;5070837;28;20231;-68
2021/06/22 10:04:17;;;;;;;1999.90;999.90;;;;;;;31.92;57.52;95464.91;5080208;28;20202;-67
2021/06/22 10:06:49;;;;;;;1999.90;999.90;;;;;;;32.26;55.47;95451.53;5090812;28;20190;-67
2021/06/22 10:09:24;;;;;;;1999.90;999.90;;;;;;;32.09;54.41;95458.19;5090953;28;20707;-67
2021/06/22 10:12:06;;;;;;;1999.90;999.90;;;;;;;32.41;53.96;95457.19;5091006;28;20608;-67
2021/06/22 10:14:35;;;;;;;1999.90;999.90;;;;;;;32.54;56.00;95455.19;5090927;28;20212;-67
2021/06/22 10:17:04;;;;;;;1999.90;999.90;;;;;;;32.59;52.99;95451.94;5091028;28;20688;-68
2021/06/22 10:19:33;;;;;;;1999.90;999.90;;;;;;;32.77;53.45;95454.81;5091065;28;20204;-67
2021/06/22 10:22:02;;;;;;;1999.90;999.90;;;;;;;32.76;54.34;95452.53;5090998;28;20199;-68
2021/06/22 10:24:30;;;;;;;1999.90;999.90;;;;;;;32.78;53.37;95452.84;5090737;28;20196;-67
2021/06/22 10:27:00;;;;;;;1999.90;999.90;;;;;;;32.91;54.27;95455.47;5090761;28;20207;-68
2021/06/22 10:29:31;;;;;;;1999.90;999.90;;;;;;;32.92;51.91;95457.75;5090372;28;20591;-67
2021/06/22 10:31:59;;;;;;;1999.90;999.90;;;;;;;32.60;55.28;95453.44;5090496;28;20657;-67
2021/06/22 10:34:27;;;;;;;1999.90;999.90;;;;;;;32.87;53.70;95450.22;5090514;28;20602;-67
2021/06/22 10:36:59;;;;;;;1999.90;999.90;;;;;;;33.05;52.38;95449.56;5090483;28;20203;-68
2021/06/22 10:39:31;;;;;;;1999.90;999.90;;;;;;;33.02;51.08;95451.22;5090566;28;20183;-67
2021/06/22 10:42:06;;;;;;;1999.90;999.90;;;;;;;33.06;50.07;95446.44;5090060;28;20242;-68
2021/06/22 10:44:45;;;;;;;1999.90;999.90;;;;;;;33.02;50.81;95445.84;5090569;28;20179;-68
2021/06/22 10:47:30;;;;;;;1999.90;999.90;;;;;;;33.08;53.43;95443.28;5090457;28;20195;-67
2021/06/22 10:50:05;;;;;;;1999.90;999.90;;;;;;;33.16;53.59;95437.25;5090011;28;20188;-68
2021/06/22 10:53:08;;;;;;;1999.90;999.90;;;;;;;33.18;48.94;95436.78;5090033;28;20191;-68
2021/06/22 10:56:16;;;;;;;1999.90;999.90;;;;;;;33.30;52.32;95438.66;5090179;28;20215;-68
2021/06/22 10:59:03;;;;;;;1999.90;999.90;;;;;;;33.23;51.86;95433.53;5090115;28;20211;-68